sensor_id;sensor_type;location;lat;lon;timestamp;P1;durP1;ratioP1;P2;durP2;ratioP2
9524;SDS011;15940;48.734;9.112;2024-01-15T00:00:20;15.03;;;7.60;;
9524;SDS011;15940;48.734;9.112;2024-01-15T00:02:46;14.13;;;7.70;;
9524;SDS011;15940;48.734;9.112;2024-01-15T00:05:13;16.10;;;8.27;;
9524;SDS011;15940;48.734;9.112;2024-01-15T00:07:40;15.43;;;7.37;;
9524;SDS011;15940;48.734;9.112;2024-01-15T00:10:07;15.13;;;7.97;;
9524;SDS011;15940;48.734;9.112;2024-01-15T00:12:34;14.17;;;7.60;;
9524;SDS011;15940;48.734;9.112;2024-01-15T00:15:00;14.97;;;7.50;;
9524;SDS011;15940;48.734;9.112;2024-01-15T00:17:28;16.37;;;8.20;;
9524;SDS011;15940;48.734;9.112;2024-01-15T00:19:55;16.90;;;7.83;;
9524;SDS011;15940;48.734;9.112;2024-01-15T00:22:23;15.97;;;7.27;;
9524;SDS011;15940;48.734;9.112;2024-01-15T00:24:51;18.10;;;7.93;;
9524;SDS011;15940;48.734;9.112;2024-01-15T00:27:18;18.43;;;7.93;;
9524;SDS011;15940;48.734;9.112;2024-01-15T00:29:44;17.27;;;8.20;;
9524;SDS011;15940;48.734;9.112;2024-01-15T00:32:11;12.80;;;7.10;;
9524;SDS011;15940;48.734;9.112;2024-01-15T00:34:39;14.60;;;7.47;;
9524;SDS011;15940;48.734;9.112;2024-01-15T00:37:06;15.03;;;7.53;;
9524;SDS011;15940;48.734;9.112;2024-01-15T00:39:33;13.63;;;7.10;;
9524;SDS011;15940;48.734;9.112;2024-01-15T00:41:59;16.10;;;7.67;;
9524;SDS011;15940;48.734;9.112;2024-01-15T00:44:26;12.77;;;7.10;;
9524;SDS011;15940;48.734;9.112;2024-01-15T00:46:53;15.10;;;6.60;;
9524;SDS011;15940;48.734;9.112;2024-01-15T00:49:19;17.23;;;6.97;;
9524;SDS011;15940;48.734;9.112;2024-01-15T00:51:48;14.47;;;7.37;;
9524;SDS011;15940;48.734;9.112;2024-01-15T00:54:14;12.70;;;6.37;;
9524;SDS011;15940;48.734;9.112;2024-01-15T00:56:41;14.87;;;7.17;;
9524;SDS011;15940;48.734;9.112;2024-01-15T00:59:08;14.77;;;7.03;;
9524;SDS011;15940;48.734;9.112;2024-01-15T01:01:35;12.30;;;6.60;;
9524;SDS011;15940;48.734;9.112;2024-01-15T01:04:03;15.87;;;6.60;;
9524;SDS011;15940;48.734;9.112;2024-01-15T01:06:30;15.50;;;7.47;;
9524;SDS011;15940;48.734;9.112;2024-01-15T01:08:58;15.80;;;7.60;;
9524;SDS011;15940;48.734;9.112;2024-01-15T01:11:25;13.03;;;6.57;;
9524;SDS011;15940;48.734;9.112;2024-01-15T01:13:51;11.90;;;6.33;;
9524;SDS011;15940;48.734;9.112;2024-01-15T01:16:18;14.07;;;6.93;;
9524;SDS011;15940;48.734;9.112;2024-01-15T01:18:45;16.63;;;7.73;;
9524;SDS011;15940;48.734;9.112;2024-01-15T01:21:11;13.67;;;7.30;;
9524;SDS011;15940;48.734;9.112;2024-01-15T01:23:38;11.63;;;6.97;;
9524;SDS011;15940;48.734;9.112;2024-01-15T01:26:06;12.17;;;6.60;;
9524;SDS011;15940;48.734;9.112;2024-01-15T01:28:33;15.20;;;6.83;;
9524;SDS011;15940;48.734;9.112;2024-01-15T01:31:00;13.43;;;6.73;;
9524;SDS011;15940;48.734;9.112;2024-01-15T01:33:26;15.53;;;6.90;;
9524;SDS011;15940;48.734;9.112;2024-01-15T01:35:53;13.27;;;6.87;;
9524;SDS011;15940;48.734;9.112;2024-01-15T01:38:20;14.67;;;6.60;;
9524;SDS011;15940;48.734;9.112;2024-01-15T01:40:47;12.50;;;6.87;;
9524;SDS011;15940;48.734;9.112;2024-01-15T01:43:15;13.40;;;6.20;;
9524;SDS011;15940;48.734;9.112;2024-01-15T01:45:41;13.60;;;6.97;;
9524;SDS011;15940;48.734;9.112;2024-01-15T01:48:08;14.17;;;7.20;;
9524;SDS011;15940;48.734;9.112;2024-01-15T01:50:35;14.90;;;7.40;;
9524;SDS011;15940;48.734;9.112;2024-01-15T01:53:02;13.60;;;6.60;;
9524;SDS011;15940;48.734;9.112;2024-01-15T01:55:29;14.90;;;6.57;;
9524;SDS011;15940;48.734;9.112;2024-01-15T01:57:58;12.97;;;6.77;;
9524;SDS011;15940;48.734;9.112;2024-01-15T02:00:26;13.47;;;6.43;;
9524;SDS011;15940;48.734;9.112;2024-01-15T02:02:54;12.07;;;6.27;;
9524;SDS011;15940;48.734;9.112;2024-01-15T02:05:21;14.33;;;7.07;;
9524;SDS011;15940;48.734;9.112;2024-01-15T02:07:48;14.87;;;6.63;;
9524;SDS011;15940;48.734;9.112;2024-01-15T02:10:16;13.47;;;6.03;;
9524;SDS011;15940;48.734;9.112;2024-01-15T02:12:43;13.93;;;6.87;;
9524;SDS011;15940;48.734;9.112;2024-01-15T02:15:10;13.80;;;6.37;;
9524;SDS011;15940;48.734;9.112;2024-01-15T02:20:26;12.20;;;6.33;;
9524;SDS011;15940;48.734;9.112;2024-01-15T02:22:53;15.20;;;6.23;;
9524;SDS011;15940;48.734;9.112;2024-01-15T02:25:21;11.10;;;6.37;;
9524;SDS011;15940;48.734;9.112;2024-01-15T02:27:48;13.93;;;7.00;;
9524;SDS011;15940;48.734;9.112;2024-01-15T02:30:14;12.67;;;6.27;;
9524;SDS011;15940;48.734;9.112;2024-01-15T02:32:42;11.97;;;6.20;;
9524;SDS011;15940;48.734;9.112;2024-01-15T02:35:08;13.87;;;6.60;;
9524;SDS011;15940;48.734;9.112;2024-01-15T02:37:35;14.10;;;7.03;;
9524;SDS011;15940;48.734;9.112;2024-01-15T02:40:02;13.00;;;6.10;;
9524;SDS011;15940;48.734;9.112;2024-01-15T02:42:31;10.57;;;5.80;;
9524;SDS011;15940;48.734;9.112;2024-01-15T02:44:57;12.47;;;6.30;;
9524;SDS011;15940;48.734;9.112;2024-01-15T02:47:24;12.90;;;6.60;;
9524;SDS011;15940;48.734;9.112;2024-01-15T02:49:51;12.03;;;6.27;;
9524;SDS011;15940;48.734;9.112;2024-01-15T02:52:17;11.80;;;5.93;;
9524;SDS011;15940;48.734;9.112;2024-01-15T02:54:44;13.10;;;6.90;;
9524;SDS011;15940;48.734;9.112;2024-01-15T02:57:11;13.30;;;6.77;;
9524;SDS011;15940;48.734;9.112;2024-01-15T02:59:39;9.93;;;6.47;;
9524;SDS011;15940;48.734;9.112;2024-01-15T03:02:06;13.13;;;6.63;;
9524;SDS011;15940;48.734;9.112;2024-01-15T03:04:32;16.67;;;6.80;;
9524;SDS011;15940;48.734;9.112;2024-01-15T03:06:59;12.97;;;6.37;;
9524;SDS011;15940;48.734;9.112;2024-01-15T03:09:26;13.83;;;6.77;;
9524;SDS011;15940;48.734;9.112;2024-01-15T03:11:52;10.83;;;6.07;;
9524;SDS011;15940;48.734;9.112;2024-01-15T03:14:19;11.93;;;6.13;;
9524;SDS011;15940;48.734;9.112;2024-01-15T03:16:47;13.47;;;6.17;;
9524;SDS011;15940;48.734;9.112;2024-01-15T03:19:14;15.93;;;6.80;;
9524;SDS011;15940;48.734;9.112;2024-01-15T03:21:41;13.00;;;5.73;;
9524;SDS011;15940;48.734;9.112;2024-01-15T03:24:07;13.07;;;6.60;;
9524;SDS011;15940;48.734;9.112;2024-01-15T03:26:34;12.13;;;6.23;;
9524;SDS011;15940;48.734;9.112;2024-01-15T03:29:01;14.97;;;6.80;;
9524;SDS011;15940;48.734;9.112;2024-01-15T03:31:28;14.13;;;6.60;;
9524;SDS011;15940;48.734;9.112;2024-01-15T03:33:56;15.70;;;7.33;;
9524;SDS011;15940;48.734;9.112;2024-01-15T03:36:22;14.00;;;6.67;;
9524;SDS011;15940;48.734;9.112;2024-01-15T03:38:49;16.07;;;6.43;;
9524;SDS011;15940;48.734;9.112;2024-01-15T03:41:16;14.27;;;6.97;;
9524;SDS011;15940;48.734;9.112;2024-01-15T03:43:42;13.93;;;6.83;;
9524;SDS011;15940;48.734;9.112;2024-01-15T03:46:09;11.43;;;5.93;;
9524;SDS011;15940;48.734;9.112;2024-01-15T03:48:36;14.00;;;6.40;;
9524;SDS011;15940;48.734;9.112;2024-01-15T03:51:04;11.50;;;6.13;;
9524;SDS011;15940;48.734;9.112;2024-01-15T03:53:31;13.10;;;6.37;;
9524;SDS011;15940;48.734;9.112;2024-01-15T03:55:58;14.33;;;6.80;;
9524;SDS011;15940;48.734;9.112;2024-01-15T03:58:24;10.77;;;5.70;;
9524;SDS011;15940;48.734;9.112;2024-01-15T04:00:51;11.00;;;5.57;;
9524;SDS011;15940;48.734;9.112;2024-01-15T04:03:18;10.20;;;5.70;;
9524;SDS011;15940;48.734;9.112;2024-01-15T04:05:44;13.57;;;6.03;;
9524;SDS011;15940;48.734;9.112;2024-01-15T04:08:12;8.83;;;5.37;;
9524;SDS011;15940;48.734;9.112;2024-01-15T04:10:39;13.50;;;6.00;;
9524;SDS011;15940;48.734;9.112;2024-01-15T04:13:06;15.87;;;6.63;;
9524;SDS011;15940;48.734;9.112;2024-01-15T04:15:33;12.50;;;5.60;;
9524;SDS011;15940;48.734;9.112;2024-01-15T04:18:01;13.03;;;5.70;;
9524;SDS011;15940;48.734;9.112;2024-01-15T04:20:28;9.90;;;5.57;;
9524;SDS011;15940;48.734;9.112;2024-01-15T04:22:55;9.20;;;5.40;;
9524;SDS011;15940;48.734;9.112;2024-01-15T04:25:23;13.10;;;5.93;;
9524;SDS011;15940;48.734;9.112;2024-01-15T04:27:50;10.73;;;5.73;;
9524;SDS011;15940;48.734;9.112;2024-01-15T04:30:17;15.10;;;6.27;;
9524;SDS011;15940;48.734;9.112;2024-01-15T04:32:43;12.17;;;6.30;;
9524;SDS011;15940;48.734;9.112;2024-01-15T04:35:10;13.13;;;6.23;;
9524;SDS011;15940;48.734;9.112;2024-01-15T04:37:38;11.70;;;5.90;;
9524;SDS011;15940;48.734;9.112;2024-01-15T04:40:05;10.03;;;5.50;;
9524;SDS011;15940;48.734;9.112;2024-01-15T04:42:34;11.80;;;5.60;;
9524;SDS011;15940;48.734;9.112;2024-01-15T04:45:01;11.67;;;5.57;;
9524;SDS011;15940;48.734;9.112;2024-01-15T04:47:28;12.77;;;6.00;;
9524;SDS011;15940;48.734;9.112;2024-01-15T04:49:55;14.67;;;6.60;;
9524;SDS011;15940;48.734;9.112;2024-01-15T04:52:22;12.27;;;5.73;;
9524;SDS011;15940;48.734;9.112;2024-01-15T04:54:48;13.30;;;6.13;;
9524;SDS011;15940;48.734;9.112;2024-01-15T04:57:15;12.30;;;6.50;;
9524;SDS011;15940;48.734;9.112;2024-01-15T04:59:43;13.10;;;6.80;;
9524;SDS011;15940;48.734;9.112;2024-01-15T05:02:10;12.30;;;6.33;;
9524;SDS011;15940;48.734;9.112;2024-01-15T05:04:37;16.27;;;7.10;;
9524;SDS011;15940;48.734;9.112;2024-01-15T05:07:03;13.60;;;6.93;;
9524;SDS011;15940;48.734;9.112;2024-01-15T05:09:30;13.03;;;7.40;;
9524;SDS011;15940;48.734;9.112;2024-01-15T05:11:57;13.07;;;6.77;;
9524;SDS011;15940;48.734;9.112;2024-01-15T05:14:24;12.60;;;6.53;;
9524;SDS011;15940;48.734;9.112;2024-01-15T05:16:52;12.80;;;6.57;;
9524;SDS011;15940;48.734;9.112;2024-01-15T05:19:18;13.83;;;6.47;;
9524;SDS011;15940;48.734;9.112;2024-01-15T05:21:45;12.77;;;6.80;;
9524;SDS011;15940;48.734;9.112;2024-01-15T05:24:12;15.43;;;7.50;;
9524;SDS011;15940;48.734;9.112;2024-01-15T05:26:39;13.53;;;6.83;;
9524;SDS011;15940;48.734;9.112;2024-01-15T05:29:05;13.97;;;7.30;;
9524;SDS011;15940;48.734;9.112;2024-01-15T05:31:32;12.90;;;7.00;;
9524;SDS011;15940;48.734;9.112;2024-01-15T05:34:00;13.73;;;7.23;;
9524;SDS011;15940;48.734;9.112;2024-01-15T05:36:27;11.23;;;5.90;;
9524;SDS011;15940;48.734;9.112;2024-01-15T05:38:54;13.33;;;7.03;;
9524;SDS011;15940;48.734;9.112;2024-01-15T05:41:20;12.90;;;6.60;;
9524;SDS011;15940;48.734;9.112;2024-01-15T05:43:47;12.80;;;6.70;;
9524;SDS011;15940;48.734;9.112;2024-01-15T05:46:14;12.97;;;6.63;;
9524;SDS011;15940;48.734;9.112;2024-01-15T05:48:40;12.57;;;6.40;;
9524;SDS011;15940;48.734;9.112;2024-01-15T05:51:09;12.20;;;6.47;;
9524;SDS011;15940;48.734;9.112;2024-01-15T05:53:36;12.67;;;6.93;;
9524;SDS011;15940;48.734;9.112;2024-01-15T05:56:05;13.30;;;6.27;;
9524;SDS011;15940;48.734;9.112;2024-01-15T05:58:32;13.67;;;6.70;;
9524;SDS011;15940;48.734;9.112;2024-01-15T06:00:58;13.60;;;6.80;;
9524;SDS011;15940;48.734;9.112;2024-01-15T06:03:25;13.60;;;6.30;;
9524;SDS011;15940;48.734;9.112;2024-01-15T06:05:52;11.07;;;5.67;;
9524;SDS011;15940;48.734;9.112;2024-01-15T06:08:20;10.73;;;5.83;;
9524;SDS011;15940;48.734;9.112;2024-01-15T06:10:47;12.07;;;6.57;;
9524;SDS011;15940;48.734;9.112;2024-01-15T06:13:14;10.90;;;5.60;;
9524;SDS011;15940;48.734;9.112;2024-01-15T06:15:41;11.90;;;6.03;;
9524;SDS011;15940;48.734;9.112;2024-01-15T06:18:08;12.03;;;5.73;;
9524;SDS011;15940;48.734;9.112;2024-01-15T06:20:34;10.83;;;6.00;;
9524;SDS011;15940;48.734;9.112;2024-01-15T06:23:01;12.33;;;5.40;;
9524;SDS011;15940;48.734;9.112;2024-01-15T06:25:29;11.70;;;6.37;;
9524;SDS011;15940;48.734;9.112;2024-01-15T06:27:56;10.53;;;5.93;;
9524;SDS011;15940;48.734;9.112;2024-01-15T06:30:23;12.50;;;6.53;;
9524;SDS011;15940;48.734;9.112;2024-01-15T06:32:50;12.53;;;6.20;;
9524;SDS011;15940;48.734;9.112;2024-01-15T06:35:16;12.37;;;6.40;;
9524;SDS011;15940;48.734;9.112;2024-01-15T06:37:43;12.33;;;6.07;;
9524;SDS011;15940;48.734;9.112;2024-01-15T06:40:10;10.47;;;5.93;;
9524;SDS011;15940;48.734;9.112;2024-01-15T06:42:38;10.03;;;5.83;;
9524;SDS011;15940;48.734;9.112;2024-01-15T06:45:05;13.10;;;6.83;;
9524;SDS011;15940;48.734;9.112;2024-01-15T06:47:33;11.83;;;5.90;;
9524;SDS011;15940;48.734;9.112;2024-01-15T06:50:00;11.53;;;6.20;;
9524;SDS011;15940;48.734;9.112;2024-01-15T06:52:26;11.30;;;6.10;;
9524;SDS011;15940;48.734;9.112;2024-01-15T06:54:53;10.97;;;5.17;;
9524;SDS011;15940;48.734;9.112;2024-01-15T06:57:20;10.83;;;6.03;;
9524;SDS011;15940;48.734;9.112;2024-01-15T06:59:48;10.00;;;5.97;;
9524;SDS011;15940;48.734;9.112;2024-01-15T07:02:15;9.33;;;5.47;;
9524;SDS011;15940;48.734;9.112;2024-01-15T07:04:42;8.57;;;5.47;;
9524;SDS011;15940;48.734;9.112;2024-01-15T07:07:09;10.27;;;5.33;;
9524;SDS011;15940;48.734;9.112;2024-01-15T07:09:36;11.80;;;5.57;;
9524;SDS011;15940;48.734;9.112;2024-01-15T07:12:03;10.37;;;5.33;;
9524;SDS011;15940;48.734;9.112;2024-01-15T07:14:29;11.63;;;5.97;;
9524;SDS011;15940;48.734;9.112;2024-01-15T07:16:57;11.83;;;6.17;;
9524;SDS011;15940;48.734;9.112;2024-01-15T07:19:24;11.93;;;6.20;;
9524;SDS011;15940;48.734;9.112;2024-01-15T07:21:51;10.33;;;6.27;;
9524;SDS011;15940;48.734;9.112;2024-01-15T07:24:18;10.93;;;5.83;;
9524;SDS011;15940;48.734;9.112;2024-01-15T07:26:45;10.93;;;6.50;;
9524;SDS011;15940;48.734;9.112;2024-01-15T07:29:11;13.50;;;6.20;;
9524;SDS011;15940;48.734;9.112;2024-01-15T07:31:38;10.37;;;6.53;;
9524;SDS011;15940;48.734;9.112;2024-01-15T07:34:06;10.90;;;5.67;;
9524;SDS011;15940;48.734;9.112;2024-01-15T07:36:33;11.50;;;5.60;;
9524;SDS011;15940;48.734;9.112;2024-01-15T07:39:00;11.43;;;6.53;;
9524;SDS011;15940;48.734;9.112;2024-01-15T07:41:27;10.87;;;5.97;;
9524;SDS011;15940;48.734;9.112;2024-01-15T07:43:54;9.87;;;5.70;;
9524;SDS011;15940;48.734;9.112;2024-01-15T07:46:21;9.87;;;5.70;;
9524;SDS011;15940;48.734;9.112;2024-01-15T07:48:48;11.53;;;6.20;;
9524;SDS011;15940;48.734;9.112;2024-01-15T07:51:17;9.47;;;5.67;;
9524;SDS011;15940;48.734;9.112;2024-01-15T07:53:44;9.63;;;5.47;;
9524;SDS011;15940;48.734;9.112;2024-01-15T07:56:11;10.97;;;5.57;;
9524;SDS011;15940;48.734;9.112;2024-01-15T07:58:38;11.00;;;5.90;;
9524;SDS011;15940;48.734;9.112;2024-01-15T08:01:04;9.53;;;4.70;;
9524;SDS011;15940;48.734;9.112;2024-01-15T08:03:31;11.00;;;5.87;;
9524;SDS011;15940;48.734;9.112;2024-01-15T08:05:58;11.03;;;5.83;;
9524;SDS011;15940;48.734;9.112;2024-01-15T08:08:27;9.70;;;5.80;;
9524;SDS011;15940;48.734;9.112;2024-01-15T08:10:54;7.93;;;4.93;;
9524;SDS011;15940;48.734;9.112;2024-01-15T08:13:21;11.93;;;5.87;;
9524;SDS011;15940;48.734;9.112;2024-01-15T08:15:48;10.90;;;5.43;;
9524;SDS011;15940;48.734;9.112;2024-01-15T08:18:15;12.33;;;5.60;;
9524;SDS011;15940;48.734;9.112;2024-01-15T08:20:42;10.03;;;5.37;;
9524;SDS011;15940;48.734;9.112;2024-01-15T08:23:08;9.23;;;5.67;;
9524;SDS011;15940;48.734;9.112;2024-01-15T08:25:37;8.93;;;5.27;;
9524;SDS011;15940;48.734;9.112;2024-01-15T08:28:03;11.43;;;5.30;;
9524;SDS011;15940;48.734;9.112;2024-01-15T08:30:30;9.40;;;5.53;;
9524;SDS011;15940;48.734;9.112;2024-01-15T08:32:57;10.00;;;5.40;;
9524;SDS011;15940;48.734;9.112;2024-01-15T08:35:24;9.27;;;5.40;;
9524;SDS011;15940;48.734;9.112;2024-01-15T08:37:51;9.27;;;5.10;;
9524;SDS011;15940;48.734;9.112;2024-01-15T08:40:18;11.93;;;5.23;;
9524;SDS011;15940;48.734;9.112;2024-01-15T08:42:46;9.77;;;5.23;;
9524;SDS011;15940;48.734;9.112;2024-01-15T08:45:14;7.37;;;4.40;;
9524;SDS011;15940;48.734;9.112;2024-01-15T08:47:41;9.03;;;4.50;;
9524;SDS011;15940;48.734;9.112;2024-01-15T08:50:07;7.53;;;4.23;;
9524;SDS011;15940;48.734;9.112;2024-01-15T08:52:35;7.70;;;4.70;;
9524;SDS011;15940;48.734;9.112;2024-01-15T08:55:02;8.00;;;4.90;;
9524;SDS011;15940;48.734;9.112;2024-01-15T08:57:29;8.00;;;4.47;;
9524;SDS011;15940;48.734;9.112;2024-01-15T08:59:57;10.10;;;4.00;;
9524;SDS011;15940;48.734;9.112;2024-01-15T09:02:24;9.30;;;4.60;;
9524;SDS011;15940;48.734;9.112;2024-01-15T09:04:51;9.73;;;4.23;;
9524;SDS011;15940;48.734;9.112;2024-01-15T09:07:18;6.07;;;3.50;;
9524;SDS011;15940;48.734;9.112;2024-01-15T09:09:44;8.20;;;4.30;;
9524;SDS011;15940;48.734;9.112;2024-01-15T09:12:11;7.33;;;3.97;;
9524;SDS011;15940;48.734;9.112;2024-01-15T09:14:40;9.27;;;4.40;;
9524;SDS011;15940;48.734;9.112;2024-01-15T09:17:08;8.90;;;4.13;;
9524;SDS011;15940;48.734;9.112;2024-01-15T09:19:35;7.33;;;3.80;;
9524;SDS011;15940;48.734;9.112;2024-01-15T09:22:02;5.87;;;3.93;;
9524;SDS011;15940;48.734;9.112;2024-01-15T09:24:29;7.80;;;4.30;;
9524;SDS011;15940;48.734;9.112;2024-01-15T09:26:56;6.50;;;3.50;;
9524;SDS011;15940;48.734;9.112;2024-01-15T09:29:22;5.60;;;3.63;;
9524;SDS011;15940;48.734;9.112;2024-01-15T09:31:49;5.63;;;3.87;;
9524;SDS011;15940;48.734;9.112;2024-01-15T09:34:17;7.53;;;4.17;;
9524;SDS011;15940;48.734;9.112;2024-01-15T09:36:44;6.17;;;3.73;;
9524;SDS011;15940;48.734;9.112;2024-01-15T09:39:11;6.47;;;3.27;;
9524;SDS011;15940;48.734;9.112;2024-01-15T09:41:37;5.70;;;3.87;;
9524;SDS011;15940;48.734;9.112;2024-01-15T09:44:04;8.13;;;3.77;;
9524;SDS011;15940;48.734;9.112;2024-01-15T09:46:32;8.13;;;3.37;;
9524;SDS011;15940;48.734;9.112;2024-01-15T09:48:59;11.20;;;3.50;;
9524;SDS011;15940;48.734;9.112;2024-01-15T09:51:28;6.37;;;3.87;;
9524;SDS011;15940;48.734;9.112;2024-01-15T09:53:58;11.37;;;3.67;;
9524;SDS011;15940;48.734;9.112;2024-01-15T09:56:24;8.03;;;3.53;;
9524;SDS011;15940;48.734;9.112;2024-01-15T09:58:51;9.40;;;3.70;;
9524;SDS011;15940;48.734;9.112;2024-01-15T10:01:20;6.33;;;3.80;;
9524;SDS011;15940;48.734;9.112;2024-01-15T10:03:46;9.17;;;4.43;;
9524;SDS011;15940;48.734;9.112;2024-01-15T10:06:13;6.70;;;3.83;;
9524;SDS011;15940;48.734;9.112;2024-01-15T10:08:43;6.53;;;3.57;;
9524;SDS011;15940;48.734;9.112;2024-01-15T10:11:13;5.67;;;3.90;;
9524;SDS011;15940;48.734;9.112;2024-01-15T10:13:41;7.57;;;3.90;;
9524;SDS011;15940;48.734;9.112;2024-01-15T10:16:09;6.83;;;4.00;;
9524;SDS011;15940;48.734;9.112;2024-01-15T10:18:37;6.47;;;3.67;;
9524;SDS011;15940;48.734;9.112;2024-01-15T10:21:04;12.60;;;3.63;;
9524;SDS011;15940;48.734;9.112;2024-01-15T10:23:32;7.87;;;4.17;;
9524;SDS011;15940;48.734;9.112;2024-01-15T10:26:00;5.47;;;3.50;;
9524;SDS011;15940;48.734;9.112;2024-01-15T10:28:27;8.53;;;4.03;;
9524;SDS011;15940;48.734;9.112;2024-01-15T10:30:56;5.80;;;3.83;;
9524;SDS011;15940;48.734;9.112;2024-01-15T10:33:24;6.63;;;3.80;;
9524;SDS011;15940;48.734;9.112;2024-01-15T10:35:51;4.50;;;3.30;;
9524;SDS011;15940;48.734;9.112;2024-01-15T10:38:20;6.13;;;3.40;;
9524;SDS011;15940;48.734;9.112;2024-01-15T10:40:47;4.60;;;3.43;;
9524;SDS011;15940;48.734;9.112;2024-01-15T10:43:15;7.93;;;3.40;;
9524;SDS011;15940;48.734;9.112;2024-01-15T10:45:43;7.63;;;4.27;;
9524;SDS011;15940;48.734;9.112;2024-01-15T10:48:10;7.17;;;3.87;;
9524;SDS011;15940;48.734;9.112;2024-01-15T10:50:37;4.53;;;3.23;;
9524;SDS011;15940;48.734;9.112;2024-01-15T10:53:04;6.97;;;3.63;;
9524;SDS011;15940;48.734;9.112;2024-01-15T10:55:31;8.33;;;3.93;;
9524;SDS011;15940;48.734;9.112;2024-01-15T10:57:58;4.87;;;3.60;;
9524;SDS011;15940;48.734;9.112;2024-01-15T11:00:27;6.97;;;3.70;;
9524;SDS011;15940;48.734;9.112;2024-01-15T11:02:54;7.20;;;3.97;;
9524;SDS011;15940;48.734;9.112;2024-01-15T11:05:21;5.33;;;3.50;;
9524;SDS011;15940;48.734;9.112;2024-01-15T11:07:48;7.47;;;4.27;;
9524;SDS011;15940;48.734;9.112;2024-01-15T11:13:03;6.10;;;3.93;;
9524;SDS011;15940;48.734;9.112;2024-01-15T11:15:32;6.57;;;3.40;;
9524;SDS011;15940;48.734;9.112;2024-01-15T11:17:59;4.73;;;3.43;;
9524;SDS011;15940;48.734;9.112;2024-01-15T11:20:28;4.40;;;3.37;;
9524;SDS011;15940;48.734;9.112;2024-01-15T11:22:56;5.53;;;3.70;;
9524;SDS011;15940;48.734;9.112;2024-01-15T11:25:24;6.70;;;3.93;;
9524;SDS011;15940;48.734;9.112;2024-01-15T11:28:01;7.33;;;4.13;;
9524;SDS011;15940;48.734;9.112;2024-01-15T11:30:28;6.50;;;4.27;;
9524;SDS011;15940;48.734;9.112;2024-01-15T11:32:56;7.80;;;4.10;;
9524;SDS011;15940;48.734;9.112;2024-01-15T11:35:23;7.10;;;3.73;;
9524;SDS011;15940;48.734;9.112;2024-01-15T11:38:26;6.77;;;4.40;;
9524;SDS011;15940;48.734;9.112;2024-01-15T11:40:54;7.97;;;4.77;;
9524;SDS011;15940;48.734;9.112;2024-01-15T11:43:20;6.70;;;4.33;;
9524;SDS011;15940;48.734;9.112;2024-01-15T11:45:56;6.40;;;4.57;;
9524;SDS011;15940;48.734;9.112;2024-01-15T11:48:23;8.40;;;5.00;;
9524;SDS011;15940;48.734;9.112;2024-01-15T11:50:59;8.57;;;4.80;;
9524;SDS011;15940;48.734;9.112;2024-01-15T11:53:27;7.63;;;4.50;;
9524;SDS011;15940;48.734;9.112;2024-01-15T11:56:00;6.67;;;4.30;;
9524;SDS011;15940;48.734;9.112;2024-01-15T11:58:28;5.90;;;4.10;;
9524;SDS011;15940;48.734;9.112;2024-01-15T12:00:56;10.27;;;4.50;;
9524;SDS011;15940;48.734;9.112;2024-01-15T12:03:23;8.10;;;4.27;;
9524;SDS011;15940;48.734;9.112;2024-01-15T12:05:52;7.20;;;4.33;;
9524;SDS011;15940;48.734;9.112;2024-01-15T12:08:20;8.10;;;4.30;;
9524;SDS011;15940;48.734;9.112;2024-01-15T12:10:47;7.47;;;4.33;;
9524;SDS011;15940;48.734;9.112;2024-01-15T12:13:14;7.30;;;4.60;;
9524;SDS011;15940;48.734;9.112;2024-01-15T12:15:43;8.87;;;5.20;;
9524;SDS011;15940;48.734;9.112;2024-01-15T12:18:11;8.07;;;4.97;;
9524;SDS011;15940;48.734;9.112;2024-01-15T12:20:39;9.23;;;5.03;;
9524;SDS011;15940;48.734;9.112;2024-01-15T12:23:07;7.50;;;4.93;;
9524;SDS011;15940;48.734;9.112;2024-01-15T12:25:35;8.13;;;4.67;;
9524;SDS011;15940;48.734;9.112;2024-01-15T12:28:02;8.80;;;6.27;;
9524;SDS011;15940;48.734;9.112;2024-01-15T12:30:30;9.40;;;5.10;;
9524;SDS011;15940;48.734;9.112;2024-01-15T12:32:57;10.77;;;4.77;;
9524;SDS011;15940;48.734;9.112;2024-01-15T12:35:25;8.77;;;5.20;;
9524;SDS011;15940;48.734;9.112;2024-01-15T12:37:52;9.80;;;5.23;;
9524;SDS011;15940;48.734;9.112;2024-01-15T12:40:20;10.60;;;5.70;;
9524;SDS011;15940;48.734;9.112;2024-01-15T12:42:48;8.37;;;5.43;;
9524;SDS011;15940;48.734;9.112;2024-01-15T12:45:15;10.60;;;5.50;;
9524;SDS011;15940;48.734;9.112;2024-01-15T12:47:42;8.20;;;5.53;;
9524;SDS011;15940;48.734;9.112;2024-01-15T12:50:08;8.43;;;5.37;;
9524;SDS011;15940;48.734;9.112;2024-01-15T12:52:37;9.93;;;5.77;;
9524;SDS011;15940;48.734;9.112;2024-01-15T12:55:06;12.80;;;5.70;;
9524;SDS011;15940;48.734;9.112;2024-01-15T12:57:34;9.00;;;5.73;;
9524;SDS011;15940;48.734;9.112;2024-01-15T13:00:01;13.97;;;6.00;;
9524;SDS011;15940;48.734;9.112;2024-01-15T13:02:31;9.73;;;5.70;;
9524;SDS011;15940;48.734;9.112;2024-01-15T13:04:58;7.80;;;5.33;;
9524;SDS011;15940;48.734;9.112;2024-01-15T13:07:25;10.50;;;5.53;;
9524;SDS011;15940;48.734;9.112;2024-01-15T13:09:53;9.67;;;5.30;;
9524;SDS011;15940;48.734;9.112;2024-01-15T13:12:20;8.20;;;4.97;;
9524;SDS011;15940;48.734;9.112;2024-01-15T13:14:47;9.67;;;5.13;;
9524;SDS011;15940;48.734;9.112;2024-01-15T13:17:14;9.70;;;4.47;;
9524;SDS011;15940;48.734;9.112;2024-01-15T13:19:41;8.17;;;4.53;;
9524;SDS011;15940;48.734;9.112;2024-01-15T13:22:08;9.30;;;5.40;;
9524;SDS011;15940;48.734;9.112;2024-01-15T13:24:35;6.47;;;4.17;;
9524;SDS011;15940;48.734;9.112;2024-01-15T13:27:03;7.67;;;4.50;;
9524;SDS011;15940;48.734;9.112;2024-01-15T13:29:30;5.83;;;4.20;;
9524;SDS011;15940;48.734;9.112;2024-01-15T13:31:58;6.00;;;4.43;;
9524;SDS011;15940;48.734;9.112;2024-01-15T13:34:25;8.40;;;4.60;;
9524;SDS011;15940;48.734;9.112;2024-01-15T13:36:52;9.30;;;4.20;;
9524;SDS011;15940;48.734;9.112;2024-01-15T13:39:19;7.53;;;4.03;;
9524;SDS011;15940;48.734;9.112;2024-01-15T13:41:46;6.63;;;4.20;;
9524;SDS011;15940;48.734;9.112;2024-01-15T13:44:14;10.30;;;4.70;;
9524;SDS011;15940;48.734;9.112;2024-01-15T13:46:41;6.30;;;4.27;;
9524;SDS011;15940;48.734;9.112;2024-01-15T13:49:08;11.43;;;4.50;;
9524;SDS011;15940;48.734;9.112;2024-01-15T13:51:35;11.90;;;4.93;;
9524;SDS011;15940;48.734;9.112;2024-01-15T13:54:02;10.07;;;5.27;;
9524;SDS011;15940;48.734;9.112;2024-01-15T13:56:30;6.57;;;4.20;;
9524;SDS011;15940;48.734;9.112;2024-01-15T13:58:57;9.67;;;4.93;;
9524;SDS011;15940;48.734;9.112;2024-01-15T14:01:26;10.93;;;4.97;;
9524;SDS011;15940;48.734;9.112;2024-01-15T14:03:53;7.13;;;4.13;;
9524;SDS011;15940;48.734;9.112;2024-01-15T14:06:20;7.20;;;3.70;;
9524;SDS011;15940;48.734;9.112;2024-01-15T14:08:47;5.93;;;4.20;;
9524;SDS011;15940;48.734;9.112;2024-01-15T14:11:14;7.07;;;4.13;;
9524;SDS011;15940;48.734;9.112;2024-01-15T14:13:40;7.47;;;3.87;;
9524;SDS011;15940;48.734;9.112;2024-01-15T14:16:07;8.17;;;3.73;;
9524;SDS011;15940;48.734;9.112;2024-01-15T14:18:36;11.90;;;4.23;;
9524;SDS011;15940;48.734;9.112;2024-01-15T14:21:02;5.40;;;4.23;;
9524;SDS011;15940;48.734;9.112;2024-01-15T14:23:29;5.80;;;3.47;;
9524;SDS011;15940;48.734;9.112;2024-01-15T14:25:56;6.77;;;3.47;;
9524;SDS011;15940;48.734;9.112;2024-01-15T14:28:23;9.20;;;3.50;;
9524;SDS011;15940;48.734;9.112;2024-01-15T14:30:50;7.23;;;2.93;;
9524;SDS011;15940;48.734;9.112;2024-01-15T14:33:17;4.23;;;2.70;;
9524;SDS011;15940;48.734;9.112;2024-01-15T14:35:45;4.77;;;3.30;;
9524;SDS011;15940;48.734;9.112;2024-01-15T14:38:12;4.53;;;2.90;;
9524;SDS011;15940;48.734;9.112;2024-01-15T14:40:39;3.13;;;2.60;;
9524;SDS011;15940;48.734;9.112;2024-01-15T14:43:05;4.87;;;2.90;;
9524;SDS011;15940;48.734;9.112;2024-01-15T14:45:33;4.43;;;2.80;;
9524;SDS011;15940;48.734;9.112;2024-01-15T14:48:00;5.37;;;2.80;;
9524;SDS011;15940;48.734;9.112;2024-01-15T14:50:26;6.03;;;3.70;;
9524;SDS011;15940;48.734;9.112;2024-01-15T14:52:54;4.67;;;3.40;;
9524;SDS011;15940;48.734;9.112;2024-01-15T14:55:21;6.47;;;3.37;;
9524;SDS011;15940;48.734;9.112;2024-01-15T14:57:48;3.40;;;2.90;;